sensor_id;sensor_type;location;lat;lon;timestamp;P1;durP1;ratioP1;P2;durP2;ratioP2
37323;SDS011;23205;49.986;18.950;2022-12-18T00:04:54;77.60;;;25.25;;
37323;SDS011;23205;49.986;18.950;2022-12-18T00:09:55;77.03;;;24.38;;
37323;SDS011;23205;49.986;18.950;2022-12-18T00:14:55;70.88;;;21.08;;
37323;SDS011;23205;49.986;18.950;2022-12-18T00:19:56;84.85;;;27.60;;
37323;SDS011;23205;49.986;18.950;2022-12-18T00:24:57;75.00;;;24.55;;
37323;SDS011;23205;49.986;18.950;2022-12-18T00:29:58;71.82;;;22.10;;
37323;SDS011;23205;49.986;18.950;2022-12-18T00:34:59;68.72;;;21.10;;
37323;SDS011;23205;49.986;18.950;2022-12-18T00:39:59;84.20;;;25.48;;
37323;SDS011;23205;49.986;18.950;2022-12-18T00:45:02;85.80;;;27.27;;
37323;SDS011;23205;49.986;18.950;2022-12-18T00:50:05;74.15;;;22.52;;
37323;SDS011;23205;49.986;18.950;2022-12-18T00:55:07;73.95;;;22.92;;
37323;SDS011;23205;49.986;18.950;2022-12-18T01:00:09;85.93;;;27.40;;
37323;SDS011;23205;49.986;18.950;2022-12-18T01:05:14;93.22;;;27.15;;
37323;SDS011;23205;49.986;18.950;2022-12-18T01:10:15;75.75;;;24.85;;
37323;SDS011;23205;49.986;18.950;2022-12-18T01:15:16;87.82;;;27.52;;
37323;SDS011;23205;49.986;18.950;2022-12-18T01:20:17;88.63;;;25.48;;
37323;SDS011;23205;49.986;18.950;2022-12-18T01:25:18;88.68;;;26.60;;
37323;SDS011;23205;49.986;18.950;2022-12-18T01:30:19;87.43;;;25.92;;
37323;SDS011;23205;49.986;18.950;2022-12-18T01:35:20;88.22;;;27.00;;
37323;SDS011;23205;49.986;18.950;2022-12-18T01:40:21;76.55;;;24.25;;
37323;SDS011;23205;49.986;18.950;2022-12-18T01:45:25;71.97;;;22.70;;
37323;SDS011;23205;49.986;18.950;2022-12-18T01:55:42;79.22;;;26.30;;
37323;SDS011;23205;49.986;18.950;2022-12-18T02:00:54;71.65;;;22.38;;
37323;SDS011;23205;49.986;18.950;2022-12-18T02:21:48;81.47;;;24.15;;
37323;SDS011;23205;49.986;18.950;2022-12-18T02:26:58;77.15;;;24.10;;
37323;SDS011;23205;49.986;18.950;2022-12-18T02:32:06;71.55;;;22.38;;
37323;SDS011;23205;49.986;18.950;2022-12-18T02:37:13;69.90;;;21.25;;
37323;SDS011;23205;49.986;18.950;2022-12-18T02:42:18;119.10;;;35.53;;
37323;SDS011;23205;49.986;18.950;2022-12-18T02:47:21;88.35;;;27.20;;
37323;SDS011;23205;49.986;18.950;2022-12-18T02:57:46;84.93;;;23.98;;
37323;SDS011;23205;49.986;18.950;2022-12-18T03:02:58;71.05;;;21.45;;
37323;SDS011;23205;49.986;18.950;2022-12-18T03:08:07;77.85;;;21.88;;
37323;SDS011;23205;49.986;18.950;2022-12-18T03:13:16;75.07;;;22.42;;
37323;SDS011;23205;49.986;18.950;2022-12-18T03:23:37;64.97;;;21.17;;
37323;SDS011;23205;49.986;18.950;2022-12-18T03:28:55;73.05;;;21.48;;
37323;SDS011;23205;49.986;18.950;2022-12-18T03:34:02;88.47;;;26.33;;
37323;SDS011;23205;49.986;18.950;2022-12-18T03:39:13;84.97;;;23.60;;
37323;SDS011;23205;49.986;18.950;2022-12-18T03:49:47;67.35;;;20.90;;
37323;SDS011;23205;49.986;18.950;2022-12-18T03:55:06;63.20;;;18.17;;
37323;SDS011;23205;49.986;18.950;2022-12-18T04:00:11;65.05;;;20.20;;
37323;SDS011;23205;49.986;18.950;2022-12-18T04:05:14;74.03;;;20.15;;
37323;SDS011;23205;49.986;18.950;2022-12-18T04:10:18;69.93;;;21.77;;
37323;SDS011;23205;49.986;18.950;2022-12-18T04:15:19;70.88;;;20.42;;
37323;SDS011;23205;49.986;18.950;2022-12-18T04:20:20;68.70;;;21.15;;
37323;SDS011;23205;49.986;18.950;2022-12-18T04:25:21;73.95;;;22.42;;
37323;SDS011;23205;49.986;18.950;2022-12-18T04:30:37;66.25;;;21.63;;
37323;SDS011;23205;49.986;18.950;2022-12-18T04:35:39;66.85;;;20.63;;
37323;SDS011;23205;49.986;18.950;2022-12-18T04:40:41;58.67;;;18.30;;
37323;SDS011;23205;49.986;18.950;2022-12-18T04:45:51;61.22;;;17.95;;
37323;SDS011;23205;49.986;18.950;2022-12-18T04:50:52;60.92;;;18.83;;
37323;SDS011;23205;49.986;18.950;2022-12-18T04:56:03;64.80;;;20.60;;
37323;SDS011;23205;49.986;18.950;2022-12-18T05:01:03;71.60;;;22.08;;
37323;SDS011;23205;49.986;18.950;2022-12-18T05:06:05;62.42;;;18.98;;
37323;SDS011;23205;49.986;18.950;2022-12-18T05:11:07;69.05;;;20.70;;
37323;SDS011;23205;49.986;18.950;2022-12-18T05:16:11;74.30;;;21.33;;
37323;SDS011;23205;49.986;18.950;2022-12-18T05:21:13;80.60;;;21.73;;
37323;SDS011;23205;49.986;18.950;2022-12-18T05:26:15;71.03;;;21.77;;
37323;SDS011;23205;49.986;18.950;2022-12-18T05:31:17;71.47;;;22.83;;
37323;SDS011;23205;49.986;18.950;2022-12-18T05:36:18;80.38;;;24.23;;
37323;SDS011;23205;49.986;18.950;2022-12-18T05:41:19;80.45;;;23.92;;
37323;SDS011;23205;49.986;18.950;2022-12-18T05:46:19;73.28;;;21.20;;
37323;SDS011;23205;49.986;18.950;2022-12-18T05:51:21;77.30;;;23.50;;
37323;SDS011;23205;49.986;18.950;2022-12-18T05:56:22;82.28;;;24.80;;
37323;SDS011;23205;49.986;18.950;2022-12-18T06:01:24;69.25;;;20.50;;
37323;SDS011;23205;49.986;18.950;2022-12-18T06:06:27;72.38;;;22.73;;
37323;SDS011;23205;49.986;18.950;2022-12-18T06:11:28;63.13;;;19.60;;
37323;SDS011;23205;49.986;18.950;2022-12-18T06:16:30;65.43;;;20.77;;
37323;SDS011;23205;49.986;18.950;2022-12-18T06:21:31;61.75;;;19.77;;
37323;SDS011;23205;49.986;18.950;2022-12-18T06:26:32;70.57;;;20.25;;
37323;SDS011;23205;49.986;18.950;2022-12-18T06:31:33;68.93;;;20.92;;
37323;SDS011;23205;49.986;18.950;2022-12-18T06:36:34;64.07;;;19.83;;
37323;SDS011;23205;49.986;18.950;2022-12-18T06:41:35;65.97;;;21.38;;
37323;SDS011;23205;49.986;18.950;2022-12-18T06:46:36;59.80;;;17.77;;
37323;SDS011;23205;49.986;18.950;2022-12-18T06:51:38;59.33;;;17.90;;
37323;SDS011;23205;49.986;18.950;2022-12-18T06:56:39;52.40;;;17.13;;
37323;SDS011;23205;49.986;18.950;2022-12-18T07:01:39;59.65;;;19.23;;
37323;SDS011;23205;49.986;18.950;2022-12-18T07:06:41;54.42;;;18.17;;
37323;SDS011;23205;49.986;18.950;2022-12-18T07:11:41;68.70;;;19.73;;
37323;SDS011;23205;49.986;18.950;2022-12-18T07:16:42;66.72;;;19.23;;
37323;SDS011;23205;49.986;18.950;2022-12-18T07:21:43;60.08;;;18.45;;
37323;SDS011;23205;49.986;18.950;2022-12-18T07:26:46;65.40;;;21.08;;
37323;SDS011;23205;49.986;18.950;2022-12-18T07:31:47;80.55;;;27.02;;
37323;SDS011;23205;49.986;18.950;2022-12-18T07:36:49;77.50;;;25.17;;
37323;SDS011;23205;49.986;18.950;2022-12-18T07:41:50;76.60;;;23.00;;
37323;SDS011;23205;49.986;18.950;2022-12-18T07:47:09;70.75;;;23.55;;
37323;SDS011;23205;49.986;18.950;2022-12-18T07:52:10;81.68;;;25.67;;
37323;SDS011;23205;49.986;18.950;2022-12-18T07:57:12;85.60;;;25.58;;
37323;SDS011;23205;49.986;18.950;2022-12-18T08:02:13;76.28;;;23.90;;
37323;SDS011;23205;49.986;18.950;2022-12-18T08:07:13;85.30;;;29.52;;
37323;SDS011;23205;49.986;18.950;2022-12-18T08:12:14;85.40;;;26.13;;
37323;SDS011;23205;49.986;18.950;2022-12-18T08:17:15;92.05;;;26.45;;
37323;SDS011;23205;49.986;18.950;2022-12-18T08:22:16;85.07;;;26.52;;
37323;SDS011;23205;49.986;18.950;2022-12-18T08:27:16;91.30;;;24.52;;
37323;SDS011;23205;49.986;18.950;2022-12-18T08:32:18;81.55;;;26.55;;
37323;SDS011;23205;49.986;18.950;2022-12-18T08:37:18;76.70;;;24.55;;
37323;SDS011;23205;49.986;18.950;2022-12-18T08:42:19;87.60;;;26.52;;
37323;SDS011;23205;49.986;18.950;2022-12-18T08:47:39;79.95;;;23.67;;
37323;SDS011;23205;49.986;18.950;2022-12-18T08:52:39;78.15;;;25.85;;
37323;SDS011;23205;49.986;18.950;2022-12-18T08:57:40;84.70;;;26.48;;
37323;SDS011;23205;49.986;18.950;2022-12-18T09:02:41;84.88;;;27.67;;
37323;SDS011;23205;49.986;18.950;2022-12-18T09:07:41;84.97;;;24.92;;
37323;SDS011;23205;49.986;18.950;2022-12-18T09:12:42;80.35;;;24.85;;
37323;SDS011;23205;49.986;18.950;2022-12-18T09:17:43;74.72;;;23.73;;
37323;SDS011;23205;49.986;18.950;2022-12-18T09:22:44;87.03;;;22.33;;
37323;SDS011;23205;49.986;18.950;2022-12-18T09:27:47;71.35;;;22.23;;
37323;SDS011;23205;49.986;18.950;2022-12-18T09:32:48;71.50;;;23.55;;
37323;SDS011;23205;49.986;18.950;2022-12-18T09:37:49;85.00;;;24.92;;
37323;SDS011;23205;49.986;18.950;2022-12-18T09:43:09;88.80;;;24.90;;
37323;SDS011;23205;49.986;18.950;2022-12-18T09:48:23;86.30;;;25.40;;
37323;SDS011;23205;49.986;18.950;2022-12-18T09:53:30;77.80;;;22.73;;
37323;SDS011;23205;49.986;18.950;2022-12-18T09:58:36;82.13;;;26.38;;
37323;SDS011;23205;49.986;18.950;2022-12-18T10:03:44;70.85;;;23.73;;
37323;SDS011;23205;49.986;18.950;2022-12-18T10:29:17;83.78;;;27.42;;
37323;SDS011;23205;49.986;18.950;2022-12-18T10:34:18;88.63;;;29.50;;
37323;SDS011;23205;49.986;18.950;2022-12-18T10:39:20;90.05;;;30.83;;
37323;SDS011;23205;49.986;18.950;2022-12-18T10:44:23;86.82;;;30.83;;
37323;SDS011;23205;49.986;18.950;2022-12-18T10:49:27;97.10;;;40.78;;
37323;SDS011;23205;49.986;18.950;2022-12-18T10:54:31;86.22;;;36.30;;
37323;SDS011;23205;49.986;18.950;2022-12-18T10:59:35;84.63;;;34.67;;
37323;SDS011;23205;49.986;18.950;2022-12-18T11:04:54;85.85;;;31.65;;
37323;SDS011;23205;49.986;18.950;2022-12-18T11:10:01;91.70;;;35.90;;
37323;SDS011;23205;49.986;18.950;2022-12-18T11:15:03;84.22;;;33.00;;
37323;SDS011;23205;49.986;18.950;2022-12-18T11:20:05;85.53;;;34.05;;
37323;SDS011;23205;49.986;18.950;2022-12-18T11:25:19;93.40;;;38.00;;
37323;SDS011;23205;49.986;18.950;2022-12-18T11:35:48;108.13;;;40.85;;
37323;SDS011;23205;49.986;18.950;2022-12-18T11:41:03;122.28;;;53.15;;
37323;SDS011;23205;49.986;18.950;2022-12-18T11:46:06;78.38;;;30.88;;
37323;SDS011;23205;49.986;18.950;2022-12-18T11:51:12;95.13;;;36.88;;
37323;SDS011;23205;49.986;18.950;2022-12-18T11:56:35;100.18;;;48.47;;
37323;SDS011;23205;49.986;18.950;2022-12-18T12:23:18;82.65;;;35.72;;
37323;SDS011;23205;49.986;18.950;2022-12-18T12:38:58;83.80;;;37.05;;
37323;SDS011;23205;49.986;18.950;2022-12-18T12:44:09;80.50;;;34.38;;
37323;SDS011;23205;49.986;18.950;2022-12-18T12:49:20;85.28;;;35.70;;
37323;SDS011;23205;49.986;18.950;2022-12-18T12:54:26;82.35;;;34.83;;
37323;SDS011;23205;49.986;18.950;2022-12-18T13:31:06;106.20;;;44.92;;
37323;SDS011;23205;49.986;18.950;2022-12-18T13:41:26;96.05;;;38.13;;
37323;SDS011;23205;49.986;18.950;2022-12-18T13:51:31;100.18;;;43.53;;
37323;SDS011;23205;49.986;18.950;2022-12-18T13:56:34;104.18;;;40.65;;
37323;SDS011;23205;49.986;18.950;2022-12-18T14:01:50;112.13;;;43.03;;
37323;SDS011;23205;49.986;18.950;2022-12-18T14:07:10;117.75;;;43.10;;
37323;SDS011;23205;49.986;18.950;2022-12-18T14:12:20;135.07;;;52.13;;
37323;SDS011;23205;49.986;18.950;2022-12-18T14:17:43;142.02;;;51.40;;
37323;SDS011;23205;49.986;18.950;2022-12-18T14:22:44;171.35;;;58.75;;
37323;SDS011;23205;49.986;18.950;2022-12-18T14:27:49;177.95;;;62.05;;
37323;SDS011;23205;49.986;18.950;2022-12-18T14:43:22;241.25;;;82.43;;
37323;SDS011;23205;49.986;18.950;2022-12-18T14:48:39;235.10;;;86.07;;
37323;SDS011;23205;49.986;18.950;2022-12-18T14:53:42;287.52;;;104.60;;
37323;SDS011;23205;49.986;18.950;2022-12-18T14:58:48;244.82;;;88.90;;
37323;SDS011;23205;49.986;18.950;2022-12-18T15:04:24;207.43;;;74.90;;
37323;SDS011;23205;49.986;18.950;2022-12-18T15:09:34;177.38;;;63.70;;
37323;SDS011;23205;49.986;18.950;2022-12-18T15:14:39;165.55;;;62.63;;
37323;SDS011;23205;49.986;18.950;2022-12-18T15:19:41;164.70;;;57.10;;
37323;SDS011;23205;49.986;18.950;2022-12-18T15:24:43;153.45;;;58.28;;
37323;SDS011;23205;49.986;18.950;2022-12-18T15:29:58;139.00;;;52.78;;
37323;SDS011;23205;49.986;18.950;2022-12-18T15:35:08;150.02;;;55.72;;
37323;SDS011;23205;49.986;18.950;2022-12-18T15:40:16;138.23;;;52.85;;
37323;SDS011;23205;49.986;18.950;2022-12-18T15:45:19;161.07;;;54.60;;
37323;SDS011;23205;49.986;18.950;2022-12-18T15:50:19;154.30;;;54.85;;
37323;SDS011;23205;49.986;18.950;2022-12-18T15:55:21;165.38;;;57.88;;
37323;SDS011;23205;49.986;18.950;2022-12-18T16:00:42;169.65;;;57.25;;
37323;SDS011;23205;49.986;18.950;2022-12-18T16:05:43;155.10;;;56.47;;
37323;SDS011;23205;49.986;18.950;2022-12-18T16:10:44;167.43;;;61.40;;
37323;SDS011;23205;49.986;18.950;2022-12-18T16:15:45;170.50;;;62.35;;
37323;SDS011;23205;49.986;18.950;2022-12-18T16:20:46;231.55;;;83.38;;
37323;SDS011;23205;49.986;18.950;2022-12-18T16:25:47;186.52;;;66.15;;
37323;SDS011;23205;49.986;18.950;2022-12-18T16:30:47;217.57;;;74.00;;
37323;SDS011;23205;49.986;18.950;2022-12-18T16:35:51;262.17;;;89.20;;
37323;SDS011;23205;49.986;18.950;2022-12-18T16:40:53;229.38;;;80.28;;
37323;SDS011;23205;49.986;18.950;2022-12-18T16:46:12;218.05;;;75.57;;
37323;SDS011;23205;49.986;18.950;2022-12-18T16:51:13;262.50;;;86.07;;
37323;SDS011;23205;49.986;18.950;2022-12-18T16:56:14;266.60;;;83.88;;
37323;SDS011;23205;49.986;18.950;2022-12-18T17:01:15;224.07;;;73.90;;
37323;SDS011;23205;49.986;18.950;2022-12-18T17:06:15;290.20;;;88.47;;
37323;SDS011;23205;49.986;18.950;2022-12-18T17:11:16;356.40;;;112.68;;
37323;SDS011;23205;49.986;18.950;2022-12-18T17:16:17;288.25;;;103.30;;
37323;SDS011;23205;49.986;18.950;2022-12-18T17:21:18;273.17;;;99.22;;
37323;SDS011;23205;49.986;18.950;2022-12-18T17:26:19;544.35;;;222.15;;
37323;SDS011;23205;49.986;18.950;2022-12-18T17:31:22;538.53;;;220.10;;
37323;SDS011;23205;49.986;18.950;2022-12-18T17:36:25;283.63;;;100.43;;
37323;SDS011;23205;49.986;18.950;2022-12-18T17:41:30;233.80;;;82.50;;
37323;SDS011;23205;49.986;18.950;2022-12-18T17:46:34;217.38;;;77.80;;
37323;SDS011;23205;49.986;18.950;2022-12-18T17:51:35;227.80;;;72.70;;
37323;SDS011;23205;49.986;18.950;2022-12-18T17:56:36;209.35;;;70.68;;
37323;SDS011;23205;49.986;18.950;2022-12-18T18:01:37;234.27;;;78.43;;
37323;SDS011;23205;49.986;18.950;2022-12-18T18:06:39;214.63;;;75.63;;
37323;SDS011;23205;49.986;18.950;2022-12-18T18:11:39;246.10;;;84.60;;
37323;SDS011;23205;49.986;18.950;2022-12-18T18:16:59;231.45;;;78.60;;
37323;SDS011;23205;49.986;18.950;2022-12-18T18:22:01;264.77;;;89.32;;
37323;SDS011;23205;49.986;18.950;2022-12-18T18:27:02;231.90;;;85.78;;
37323;SDS011;23205;49.986;18.950;2022-12-18T18:32:03;247.90;;;76.40;;
37323;SDS011;23205;49.986;18.950;2022-12-18T18:37:04;222.30;;;77.68;;
37323;SDS011;23205;49.986;18.950;2022-12-18T18:42:05;202.52;;;70.13;;
37323;SDS011;23205;49.986;18.950;2022-12-18T18:47:06;209.52;;;72.25;;
37323;SDS011;23205;49.986;18.950;2022-12-18T18:52:06;207.13;;;70.15;;
37323;SDS011;23205;49.986;18.950;2022-12-18T18:57:07;220.40;;;76.50;;
37323;SDS011;23205;49.986;18.950;2022-12-18T19:02:10;194.93;;;72.72;;
37323;SDS011;23205;49.986;18.950;2022-12-18T19:07:13;198.52;;;69.40;;
37323;SDS011;23205;49.986;18.950;2022-12-18T19:12:15;226.07;;;73.53;;
37323;SDS011;23205;49.986;18.950;2022-12-18T19:17:34;200.00;;;70.35;;
37323;SDS011;23205;49.986;18.950;2022-12-18T19:22:36;215.30;;;72.20;;
37323;SDS011;23205;49.986;18.950;2022-12-18T19:27:37;248.25;;;83.72;;
37323;SDS011;23205;49.986;18.950;2022-12-18T19:32:39;269.05;;;90.38;;
37323;SDS011;23205;49.986;18.950;2022-12-18T19:37:40;252.10;;;84.95;;
37323;SDS011;23205;49.986;18.950;2022-12-18T19:42:40;260.52;;;82.97;;
37323;SDS011;23205;49.986;18.950;2022-12-18T19:47:41;264.85;;;87.63;;
37323;SDS011;23205;49.986;18.950;2022-12-18T19:52:42;269.08;;;90.43;;
37323;SDS011;23205;49.986;18.950;2022-12-18T19:57:43;270.60;;;90.93;;
37323;SDS011;23205;49.986;18.950;2022-12-18T20:02:48;263.58;;;84.60;;
37323;SDS011;23205;49.986;18.950;2022-12-18T20:07:52;238.90;;;75.85;;
37323;SDS011;23205;49.986;18.950;2022-12-18T20:12:53;194.70;;;66.40;;
37323;SDS011;23205;49.986;18.950;2022-12-18T20:17:55;189.98;;;68.70;;
37323;SDS011;23205;49.986;18.950;2022-12-18T20:22:56;207.10;;;68.18;;
37323;SDS011;23205;49.986;18.950;2022-12-18T20:27:56;231.68;;;72.88;;
37323;SDS011;23205;49.986;18.950;2022-12-18T20:32:57;238.57;;;81.53;;
37323;SDS011;23205;49.986;18.950;2022-12-18T20:37:58;232.13;;;80.10;;
37323;SDS011;23205;49.986;18.950;2022-12-18T20:42:59;251.90;;;84.82;;
37323;SDS011;23205;49.986;18.950;2022-12-18T20:48:00;235.70;;;81.68;;
37323;SDS011;23205;49.986;18.950;2022-12-18T20:53:01;230.05;;;79.88;;
37323;SDS011;23205;49.986;18.950;2022-12-18T20:58:02;226.13;;;74.78;;
37323;SDS011;23205;49.986;18.950;2022-12-18T21:03:03;242.57;;;81.80;;
37323;SDS011;23205;49.986;18.950;2022-12-18T21:08:04;263.58;;;87.35;;
37323;SDS011;23205;49.986;18.950;2022-12-18T21:13:04;284.30;;;89.88;;
37323;SDS011;23205;49.986;18.950;2022-12-18T21:18:05;256.45;;;78.60;;
37323;SDS011;23205;49.986;18.950;2022-12-18T21:23:06;262.50;;;80.65;;
37323;SDS011;23205;49.986;18.950;2022-12-18T21:28:07;254.88;;;84.18;;
37323;SDS011;23205;49.986;18.950;2022-12-18T21:33:07;244.13;;;75.13;;
37323;SDS011;23205;49.986;18.950;2022-12-18T21:38:08;228.18;;;70.47;;
37323;SDS011;23205;49.986;18.950;2022-12-18T21:43:09;244.35;;;74.57;;
37323;SDS011;23205;49.986;18.950;2022-12-18T21:48:28;213.02;;;69.43;;
37323;SDS011;23205;49.986;18.950;2022-12-18T21:53:29;223.07;;;72.38;;
37323;SDS011;23205;49.986;18.950;2022-12-18T21:58:30;192.70;;;64.60;;
37323;SDS011;23205;49.986;18.950;2022-12-18T22:03:31;204.27;;;65.07;;
37323;SDS011;23205;49.986;18.950;2022-12-18T22:08:32;185.65;;;61.83;;
37323;SDS011;23205;49.986;18.950;2022-12-18T22:13:34;200.77;;;65.30;;
37323;SDS011;23205;49.986;18.950;2022-12-18T22:18:35;189.93;;;63.85;;
37323;SDS011;23205;49.986;18.950;2022-12-18T22:23:36;195.02;;;64.20;;
37323;SDS011;23205;49.986;18.950;2022-12-18T22:28:36;209.85;;;67.53;;
37323;SDS011;23205;49.986;18.950;2022-12-18T22:33:56;217.68;;;68.15;;
37323;SDS011;23205;49.986;18.950;2022-12-18T22:38:56;204.13;;;64.22;;
37323;SDS011;23205;49.986;18.950;2022-12-18T22:43:57;202.43;;;64.13;;
37323;SDS011;23205;49.986;18.950;2022-12-18T22:48:58;203.63;;;64.28;;
37323;SDS011;23205;49.986;18.950;2022-12-18T22:53:59;214.93;;;67.05;;
37323;SDS011;23205;49.986;18.950;2022-12-18T22:58:59;211.85;;;66.63;;
37323;SDS011;23205;49.986;18.950;2022-12-18T23:04:00;228.02;;;72.72;;
37323;SDS011;23205;49.986;18.950;2022-12-18T23:09:01;204.30;;;69.30;;
37323;SDS011;23205;49.986;18.950;2022-12-18T23:14:02;217.65;;;67.75;;
37323;SDS011;23205;49.986;18.950;2022-12-18T23:19:03;217.98;;;68.72;;
37323;SDS011;23205;49.986;18.950;2022-12-18T23:24:05;194.23;;;66.35;;
37323;SDS011;23205;49.986;18.950;2022-12-18T23:29:06;212.27;;;66.78;;
37323;SDS011;23205;49.986;18.950;2022-12-18T23:34:07;213.65;;;66.93;;
37323;SDS011;23205;49.986;18.950;2022-12-18T23:39:11;210.18;;;67.82;;
37323;SDS011;23205;49.986;18.950;2022-12-18T23:44:13;199.82;;;66.93;;
37323;SDS011;23205;49.986;18.950;2022-12-18T23:49:14;188.82;;;62.63;;
37323;SDS011;23205;49.986;18.950;2022-12-18T23:54:14;208.48;;;68.43;;
37323;SDS011;23205;49.986;18.950;2022-12-18T23:59:15;199.13;;;66.82;;
